Terminal Aerodrome Forecast
Issued by NWS

Current Version | Previous Version | Text Only | Print | Product List | Glossary Off
Versions: 1 2 3 4 5 6 7 8 9 10 11 12 13 14 15 16 17 18

000
FTUS41 KILN 281000 AAA
TAFLUK
TAF AMD
KLUK 281009Z 2810/2906 06003KT P6SM SCT100 OVC220
      TEMPO 2810/2811 3SM BR
     FM281300 09004KT P6SM FEW050 OVC250
     FM290000 VRB03KT P6SM SCT250=

USA.gov is the U.S. government's official web portal to all federal, state and local government web resources and services.